Current Weather

Chhatrapati Shivaji Intl

Chhatrapati Shivaji Intl, India (VABB)

Report from: Friday, August 19, 2022 10:00 AM IST
Current time: Friday, August 19, 2022 10:41 AM IST

Nearby weather
Weather history
Weather forecast

Present weatherHaze
Temperature28.0°C (82.4°F)
Heat index34.4°C (93.9°F)
Dew point27.0°C (80.6°F)
Winds 8 kts (4.1 m/s, 9.2 mph) Southwest (230°)
Wind gusts 18 kts (9.3 m/s, 20.7 mph)
Visibility1.9 mi. (3 km)
Clouds Scattered clouds 1,800 ft. (549 m)
Few clouds with towering cumulus 2,500 ft. (762 m)
Scattered clouds 10,000 ft. (3,048 m)
Altimeter29.77 in.Hg (1008 mB)
Relative humidity94 %
Density altitude2,147 ft. (654 m)
Remarks No significant changes expected in the next two hours
Flight conditions Instrument Meteorological Conditions
Raw dataVABB 190430Z 23008G18KT 3000 HZ SCT018 FEW025TCU SCT100 28/27 Q1008 NOSIG
An unhandled exception has occurred. See browser dev tools for details. Reload 🗙